Time;durP1;ratioP1;P1;durP2;ratioP2;P2;SDS_P1;SDS_P2;PMS_P1;PMS_P2;Temp;Humidity;BMP_temperature;BMP_pressure;BME280_temperature;BME280_humidity;BME280_pressure;Samples;Min_cycle;Max_cycle;Signal;HPM_P1;HPM_P2
2022/01/21 00:00:51;;;;;;;0.10;0.10;;;-1.20;99.90;-2.20;99468;;;;570208;247;24126;-79
2022/01/21 00:03:19;;;;;;;0.67;0.13;;;-1.30;99.90;-2.20;99454;;;;601591;238;24056;-79
2022/01/21 00:05:47;;;;;;;1.43;0.33;;;-1.30;99.90;-2.30;99454;;;;598200;237;24063;-79
2022/01/21 00:08:18;;;;;;;0.20;0.20;;;-1.40;99.90;-2.30;99471;;;;584643;241;24060;-79
2022/01/21 00:10:43;;;;;;;0.00;0.00;;;-1.40;99.90;-2.30;99462;;;;584757;242;24028;-79
2022/01/21 00:13:21;;;;;;;0.00;0.00;;;-1.50;99.90;-2.40;99468;;;;594090;240;24083;-79
2022/01/21 00:15:39;;;;;;;0.87;0.10;;;-1.50;99.90;-2.40;99467;;;;584405;242;24080;-79
2022/01/21 00:18:08;;;;;;;0.73;0.30;;;-1.50;99.90;-2.40;99486;;;;584237;242;24081;-79
2022/01/21 00:31:39;;;;;;;1.27;0.67;;;-1.40;99.90;-2.20;99502;;;;587156;238;24022;-79
2022/01/21 00:34:07;;;;;;;0.30;0.30;;;-1.20;99.90;-2.10;99502;;;;604216;235;24233;-78
2022/01/21 00:36:35;;;;;;;0.00;0.00;;;-1.20;99.90;-2.10;99497;;;;604309;237;24024;-79
2022/01/21 00:39:03;;;;;;;0.10;0.10;;;-1.10;99.90;-2.00;99499;;;;605477;235;24015;-80
2022/01/21 00:41:35;;;;;;;0.40;0.40;;;-1.00;99.90;-2.00;99504;;;;597784;238;24068;-79
2022/01/21 00:43:59;;;;;;;0.20;0.20;;;-0.90;99.90;-1.90;99502;;;;595315;238;24042;-80
2022/01/21 00:46:28;;;;;;;0.00;0.00;;;-0.80;99.90;-1.90;99502;;;;604999;235;24039;-80
2022/01/21 00:48:56;;;;;;;0.17;0.17;;;-0.80;99.90;-1.90;99503;;;;604864;236;25052;-80
2022/01/21 00:51:24;;;;;;;0.10;0.10;;;-0.80;99.90;-1.80;99496;;;;604812;236;23997;-79
2022/01/21 00:53:52;;;;;;;5.63;0.30;;;-0.80;99.90;-1.80;99495;;;;595724;238;24064;-79
2022/01/21 00:56:23;;;;;;;0.00;0.00;;;-0.70;99.90;-1.70;99513;;;;605098;235;23982;-79
2022/01/21 00:58:49;;;;;;;0.00;0.00;;;-0.70;99.90;-1.70;99508;;;;604535;237;25061;-79
2022/01/21 01:01:16;;;;;;;0.10;0.10;;;-0.70;99.90;-1.70;99510;;;;604650;236;24035;-79
2022/01/21 01:03:44;;;;;;;0.10;0.10;;;-0.70;99.90;-1.70;99509;;;;604438;236;24047;-78
2022/01/21 01:06:12;;;;;;;0.10;0.10;;;-0.70;99.90;-1.70;99508;;;;604576;235;24044;-79
2022/01/21 01:08:43;;;;;;;0.70;0.40;;;-0.70;99.90;-1.70;99515;;;;599279;235;34777;-79
2022/01/21 01:21:48;;;;;;;0.00;0.00;;;-0.80;99.90;-1.70;99531;;;;596840;238;24083;-80
2022/01/21 01:29:27;;;;;;;1.40;0.87;;;-0.60;99.90;-1.60;99539;;;;581943;237;24048;-78
2022/01/21 01:31:55;;;;;;;0.00;0.00;;;-0.60;99.90;-1.60;99547;;;;573491;245;24110;-79
2022/01/21 01:34:23;;;;;;;0.10;0.10;;;-0.50;99.90;-1.60;99537;;;;571638;248;24093;-79
2022/01/21 01:36:57;;;;;;;1.50;0.60;;;-0.50;99.90;-1.50;99544;;;;581658;245;24169;-78
2022/01/21 01:50:09;;;;;;;0.10;0.10;;;-0.40;99.90;-1.50;99562;;;;572819;246;24060;-77
2022/01/21 01:52:37;;;;;;;0.45;0.25;;;-0.40;99.90;-1.50;99555;;;;568294;246;35162;-77
2022/01/21 01:55:05;;;;;;;0.10;0.10;;;-0.40;99.90;-1.50;99565;;;;573109;244;24075;-77
2022/01/21 01:57:33;;;;;;;0.00;0.00;;;-0.40;99.90;-1.50;99564;;;;579544;247;24133;-76
2022/01/21 02:00:05;;;;;;;0.00;0.00;;;-0.40;99.90;-1.50;99566;;;;571274;248;24098;-77
2022/01/21 02:02:30;;;;;;;0.17;0.17;;;-0.40;99.90;-1.50;99569;;;;582389;243;24059;-77
2022/01/21 02:05:01;;;;;;;0.43;0.43;;;-0.40;99.90;-1.50;99571;;;;587929;242;24063;-77
2022/01/21 02:07:26;;;;;;;0.00;0.00;;;-0.40;99.90;-1.40;99582;;;;579859;241;24052;-77
2022/01/21 02:09:54;;;;;;;0.80;0.30;;;-0.40;99.90;-1.40;99573;;;;582785;243;34942;-78
2022/01/21 02:12:25;;;;;;;0.20;0.20;;;-0.40;99.90;-1.40;99580;;;;572416;248;24119;-78
2022/01/21 02:14:52;;;;;;;0.20;0.20;;;-0.30;99.90;-1.40;99577;;;;574616;246;24080;-77
2022/01/21 02:22:37;;;;;;;0.00;0.00;;;-0.30;99.90;-1.50;99595;;;;583990;246;25136;-77
2022/01/21 02:25:15;;;;;;;0.00;0.00;;;-0.40;99.90;-1.50;99599;;;;587855;242;24077;-76
2022/01/21 02:27:28;;;;;;;5.63;2.97;;;-0.40;99.90;-1.50;99609;;;;585919;242;24050;-75
2022/01/21 02:30:02;;;;;;;0.00;0.00;;;-0.40;99.90;-1.50;99610;;;;582009;243;24050;-77
2022/01/21 02:32:24;;;;;;;0.00;0.00;;;-0.40;99.90;-1.50;99603;;;;586242;243;24064;-77
2022/01/21 02:34:52;;;;;;;0.03;0.03;;;-0.40;99.90;-1.50;99604;;;;587893;243;24064;-78
2022/01/21 02:37:20;;;;;;;0.10;0.10;;;-0.40;99.90;-1.50;99606;;;;587761;243;24055;-77
2022/01/21 02:39:52;;;;;;;0.00;0.00;;;-0.40;99.90;-1.50;99599;;;;582522;243;24075;-78
2022/01/21 02:42:20;;;;;;;0.10;0.10;;;-0.40;99.90;-1.50;99610;;;;587291;242;24054;-78
2022/01/21 02:44:46;;;;;;;0.30;0.30;;;-0.40;99.90;-1.50;99609;;;;582170;243;24060;-78
2022/01/21 02:47:14;;;;;;;1.27;0.10;;;-0.40;99.90;-1.50;99609;;;;572552;248;24139;-77
2022/01/21 02:49:41;;;;;;;0.43;0.43;;;-0.30;99.90;-1.50;99609;;;;591589;238;24078;-77
2022/01/21 02:52:11;;;;;;;0.00;0.00;;;-0.30;99.90;-1.40;99607;;;;582433;242;24106;-76
2022/01/21 02:54:39;;;;;;;0.00;0.00;;;-0.30;99.90;-1.40;99608;;;;587745;243;25110;-76
2022/01/21 02:57:07;;;;;;;0.10;0.10;;;-0.30;99.90;-1.40;99609;;;;587526;243;24058;-77
2022/01/21 02:59:35;;;;;;;1.20;1.13;;;-0.30;99.90;-1.40;99610;;;;581634;243;24061;-76
2022/01/21 03:02:02;;;;;;;0.30;0.30;;;-0.30;99.90;-1.40;99618;;;;578084;243;35441;-77
2022/01/21 03:04:43;;;;;;;0.30;0.30;;;-0.30;99.90;-1.40;99624;;;;562614;250;24107;-77
2022/01/21 03:07:04;;;;;;;0.00;0.00;;;-0.30;99.90;-1.40;99626;;;;570721;251;24119;-78
2022/01/21 03:09:29;;;;;;;0.00;0.00;;;-0.30;99.90;-1.40;99634;;;;562301;251;25173;-78
2022/01/21 03:11:58;;;;;;;0.10;0.10;;;-0.30;99.90;-1.40;99630;;;;562363;251;24137;-77
2022/01/21 03:14:25;;;;;;;0.00;0.00;;;-0.30;99.90;-1.40;99636;;;;570882;247;24129;-77
2022/01/21 03:16:53;;;;;;;0.00;0.00;;;-0.30;99.90;-1.40;99634;;;;550650;254;24188;-77
2022/01/21 03:19:21;;;;;;;0.40;0.40;;;-0.30;99.90;-1.50;99629;;;;570660;248;24115;-77
2022/01/21 03:21:53;;;;;;;0.00;0.00;;;-0.30;99.90;-1.50;99638;;;;570821;248;24145;-77
2022/01/21 03:24:18;;;;;;;0.10;0.10;;;-0.30;99.90;-1.50;99644;;;;575575;245;24097;-77
2022/01/21 03:26:46;;;;;;;0.00;0.00;;;-0.30;99.90;-1.50;99647;;;;568137;248;24085;-76
2022/01/21 03:29:14;;;;;;;0.00;0.00;;;-0.30;99.90;-1.50;99636;;;;582148;246;24163;-77
2022/01/21 03:31:42;;;;;;;0.00;0.00;;;-0.40;99.90;-1.50;99650;;;;573908;246;24094;-77
2022/01/21 03:34:11;;;;;;;0.03;0.03;;;-0.40;99.90;-1.50;99646;;;;581817;246;24187;-78
2022/01/21 03:36:40;;;;;;;0.10;0.10;;;-0.40;99.90;-1.50;99648;;;;581841;246;24089;-76
2022/01/21 03:39:11;;;;;;;1.30;0.37;;;-0.40;99.90;-1.50;99663;;;;571607;248;24106;-78
2022/01/21 03:41:39;;;;;;;0.00;0.00;;;-0.40;99.90;-1.50;99651;;;;571254;248;24201;-76
2022/01/21 03:44:03;;;;;;;0.27;0.20;;;-0.40;99.90;-1.50;99646;;;;579490;247;24117;-77
2022/01/21 03:46:31;;;;;;;0.10;0.10;;;-0.40;99.90;-1.50;99657;;;;579852;247;24116;-77
2022/01/21 03:49:02;;;;;;;0.63;0.40;;;-0.40;99.90;-1.50;99658;;;;572841;246;24193;-77
2022/01/21 03:51:27;;;;;;;0.10;0.10;;;-0.40;99.90;-1.50;99660;;;;571510;243;24094;-78
2022/01/21 03:53:55;;;;;;;8.20;0.63;;;-0.40;99.90;-1.50;99673;;;;581582;246;24158;-78
2022/01/21 03:56:23;;;;;;;0.10;0.10;;;-0.40;99.90;-1.50;99673;;;;571123;248;24088;-79
2022/01/21 03:58:51;;;;;;;0.17;0.17;;;-0.40;99.90;-1.50;99685;;;;572280;246;24119;-77
2022/01/21 04:01:23;;;;;;;0.43;0.37;;;-0.40;99.90;-1.50;99674;;;;581203;246;24127;-78
2022/01/21 04:03:47;;;;;;;0.07;0.07;;;-0.40;99.90;-1.60;99677;;;;572839;243;24039;-77
2022/01/21 04:06:16;;;;;;;0.00;0.00;;;-0.40;99.90;-1.50;99680;;;;582340;243;24108;-78
2022/01/21 04:08:44;;;;;;;0.10;0.10;;;-0.40;99.90;-1.50;99676;;;;582165;243;24067;-79
2022/01/21 04:11:16;;;;;;;0.10;0.10;;;-0.40;99.90;-1.50;99678;;;;581912;245;24088;-79
2022/01/21 04:13:40;;;;;;;0.10;0.10;;;-0.40;99.90;-1.50;99684;;;;586582;243;24111;-77
2022/01/21 04:16:08;;;;;;;0.00;0.00;;;-0.40;99.90;-1.50;99686;;;;583435;243;24066;-78
2022/01/21 04:18:36;;;;;;;0.00;0.00;;;-0.40;99.90;-1.50;99688;;;;570687;248;24134;-78
2022/01/21 04:21:07;;;;;;;0.00;0.00;;;-0.40;99.90;-1.50;99693;;;;582787;245;24075;-77
2022/01/21 04:23:31;;;;;;;0.20;0.20;;;-0.40;99.90;-1.50;99685;;;;577526;244;24118;-77
2022/01/21 04:25:59;;;;;;;0.10;0.10;;;-0.40;99.90;-1.50;99688;;;;583176;242;24038;-78
2022/01/21 04:28:29;;;;;;;0.20;0.20;;;-0.30;99.90;-1.50;99691;;;;583018;245;24062;-77
2022/01/21 04:30:59;;;;;;;0.33;0.33;;;-0.40;99.90;-1.50;99680;;;;577850;244;24116;-78
2022/01/21 04:33:24;;;;;;;0.13;0.13;;;-0.30;99.90;-1.50;99695;;;;553405;254;24131;-77
2022/01/21 04:35:52;;;;;;;0.07;0.07;;;-0.30;99.90;-1.50;99699;;;;573552;248;25120;-79
2022/01/21 04:38:23;;;;;;;0.93;0.93;;;-0.30;99.90;-1.50;99697;;;;560316;255;24132;-78
2022/01/21 04:40:57;;;;;;;1.80;0.57;;;-0.30;99.90;-1.50;99701;;;;581525;246;24250;-79
2022/01/21 04:48:49;;;;;;;0.20;0.10;;;-0.30;99.90;-1.50;99701;;;;569368;249;24112;-77
2022/01/21 04:51:25;;;;;;;0.10;0.10;;;-0.40;99.90;-1.50;99702;;;;572658;246;24077;-77
2022/01/21 04:53:45;;;;;;;0.10;0.10;;;-0.40;99.90;-1.50;99711;;;;572579;247;24107;-78
2022/01/21 04:56:13;;;;;;;0.40;0.40;;;-0.40;99.90;-1.50;99719;;;;569113;248;24103;-78
2022/01/21 04:58:42;;;;;;;0.20;0.20;;;-0.30;99.90;-1.50;99720;;;;572713;246;24140;-77
2022/01/21 05:01:13;;;;;;;0.10;0.10;;;-0.30;99.90;-1.50;99716;;;;572530;247;24139;-77
2022/01/21 05:03:38;;;;;;;0.10;0.10;;;-0.30;99.90;-1.50;99720;;;;579220;247;24138;-77
2022/01/21 05:06:05;;;;;;;0.10;0.10;;;-0.30;99.90;-1.50;99722;;;;572853;247;24176;-77
2022/01/21 05:08:45;;;;;;;0.00;0.00;;;-0.30;99.90;-1.50;99726;;;;571574;248;24072;-77
2022/01/21 05:11:07;;;;;;;0.00;0.00;;;-0.30;99.90;-1.50;99722;;;;581469;246;24076;-77
2022/01/21 05:13:42;;;;;;;0.30;0.13;;;-0.40;99.90;-1.50;99717;;;;581770;245;24085;-78
2022/01/21 05:16:17;;;;;;;0.00;0.00;;;-0.40;99.90;-1.50;99720;;;;571445;248;24124;-78
2022/01/21 05:18:34;;;;;;;0.00;0.00;;;-0.30;99.90;-1.50;99729;;;;571130;247;24100;-78
2022/01/21 05:21:05;;;;;;;0.00;0.00;;;-0.30;99.90;-1.50;99725;;;;581584;246;24087;-77
2022/01/21 05:23:30;;;;;;;0.00;0.00;;;-0.30;99.90;-1.50;99732;;;;569129;248;24077;-77
2022/01/21 05:25:59;;;;;;;0.00;0.00;;;-0.30;99.90;-1.50;99739;;;;584969;244;24089;-78
2022/01/21 05:28:27;;;;;;;0.00;0.00;;;-0.40;99.90;-1.50;99728;;;;584506;244;24145;-79
2022/01/21 05:30:55;;;;;;;0.00;0.00;;;-0.30;99.90;-1.50;99745;;;;584326;244;24065;-77
2022/01/21 05:33:23;;;;;;;0.97;0.97;;;-0.30;99.90;-1.50;99747;;;;584355;244;24060;-78
2022/01/21 05:35:51;;;;;;;1.40;0.60;;;-0.30;99.90;-1.50;99747;;;;578943;244;35067;-78
2022/01/21 05:38:20;;;;;;;0.23;0.23;;;-0.40;99.90;-1.50;99746;;;;587391;244;24113;-78
2022/01/21 05:40:52;;;;;;;0.10;0.10;;;-0.40;99.90;-1.50;99751;;;;584032;245;24064;-78
2022/01/21 05:43:16;;;;;;;0.03;0.03;;;-0.40;99.90;-1.50;99749;;;;577702;245;24080;-78
2022/01/21 05:48:30;;;;;;;0.07;0.07;;;-0.30;99.90;-1.60;99750;;;;576229;247;24108;-78
2022/01/21 05:50:58;;;;;;;0.00;0.00;;;-0.40;99.90;-1.60;99746;;;;576105;247;24083;-78
2022/01/21 05:53:26;;;;;;;0.10;0.10;;;-0.40;99.90;-1.60;99748;;;;576194;247;24097;-79
2022/01/21 05:56:00;;;;;;;0.10;0.10;;;-0.40;99.90;-1.60;99740;;;;575150;247;24084;-78
2022/01/21 05:58:22;;;;;;;0.10;0.10;;;-0.40;99.90;-1.60;99736;;;;575652;247;24091;-78
2022/01/21 06:00:50;;;;;;;0.00;0.00;;;-0.40;99.90;-1.60;99760;;;;576255;247;24085;-78
2022/01/21 06:03:18;;;;;;;0.10;0.10;;;-0.40;99.90;-1.60;99757;;;;577251;247;24088;-78
2022/01/21 06:05:46;;;;;;;0.10;0.10;;;-0.40;99.90;-1.60;99751;;;;571536;248;24178;-77
2022/01/21 06:08:15;;;;;;;0.17;0.17;;;-0.50;99.90;-1.60;99754;;;;579277;243;25105;-78
2022/01/21 06:10:42;;;;;;;0.10;0.10;;;-0.50;99.90;-1.70;99761;;;;571675;245;24092;-79
2022/01/21 06:13:15;;;;;;;0.10;0.10;;;-0.50;99.90;-1.70;99772;;;;584019;244;24052;-79
2022/01/21 06:15:39;;;;;;;0.00;0.00;;;-0.50;99.90;-1.70;99766;;;;583624;244;24044;-77
2022/01/21 06:18:07;;;;;;;0.17;0.17;;;-0.50;99.90;-1.70;99775;;;;583889;244;24064;-77
2022/01/21 06:20:35;;;;;;;0.10;0.10;;;-0.50;99.90;-1.70;99773;;;;583827;244;24105;-79
2022/01/21 06:23:03;;;;;;;0.07;0.07;;;-0.50;99.90;-1.70;99774;;;;583949;244;24046;-78
2022/01/21 06:25:31;;;;;;;0.10;0.10;;;-0.50;99.90;-1.70;99772;;;;583701;244;24058;-77
2022/01/21 06:27:59;;;;;;;0.00;0.00;;;-0.50;99.90;-1.70;99781;;;;579670;244;24083;-77
2022/01/21 06:30:26;;;;;;;0.03;0.03;;;-0.50;99.90;-1.70;99784;;;;583476;244;24066;-78
2022/01/21 06:32:55;;;;;;;0.10;0.10;;;-0.50;99.90;-1.70;99782;;;;577979;244;24064;-77
2022/01/21 06:35:23;;;;;;;0.10;0.10;;;-0.50;99.90;-1.70;99787;;;;579741;245;24038;-79
2022/01/21 06:37:51;;;;;;;0.07;0.07;;;-0.50;99.90;-1.70;99781;;;;585020;243;24063;-79
2022/01/21 06:40:20;;;;;;;1.60;1.43;;;-0.50;99.90;-1.70;99789;;;;582294;246;24072;-80
2022/01/21 06:42:51;;;;;;;0.00;0.00;;;-0.50;99.90;-1.70;99788;;;;572815;247;24117;-78
2022/01/21 06:45:19;;;;;;;0.10;0.10;;;-0.50;99.90;-1.70;99802;;;;564822;247;24115;-78
2022/01/21 06:47:43;;;;;;;0.30;0.30;;;-0.50;99.90;-1.70;99798;;;;571943;249;24086;-78
2022/01/21 06:50:11;;;;;;;0.40;0.40;;;-0.50;99.90;-1.70;99796;;;;570280;246;24002;-79
2022/01/21 06:52:40;;;;;;;0.13;0.13;;;-0.50;99.90;-1.70;99812;;;;580916;247;24106;-78
2022/01/21 06:55:09;;;;;;;0.10;0.10;;;-0.50;99.90;-1.70;99804;;;;572655;247;24115;-79
2022/01/21 06:57:39;;;;;;;0.40;0.40;;;-0.50;99.90;-1.70;99799;;;;563233;249;24123;-80
2022/01/21 07:00:05;;;;;;;0.30;0.30;;;-0.40;99.90;-1.70;99813;;;;577707;245;24085;-79
2022/01/21 07:02:33;;;;;;;0.30;0.30;;;-0.50;99.90;-1.70;99821;;;;580256;242;24065;-78
2022/01/21 07:05:02;;;;;;;0.53;0.20;;;-0.50;99.90;-1.70;99808;;;;567104;249;24086;-78
2022/01/21 07:07:29;;;;;;;0.60;0.60;;;-0.50;99.90;-1.70;99824;;;;578519;244;24066;-78
2022/01/21 07:09:57;;;;;;;0.20;0.20;;;-0.40;99.90;-1.60;99817;;;;583802;239;24049;-78
2022/01/21 07:12:25;;;;;;;0.53;0.20;;;-0.40;99.90;-1.70;99810;;;;586073;244;24131;-78
2022/01/21 07:14:54;;;;;;;0.20;0.20;;;-0.40;99.90;-1.60;99818;;;;577751;247;24049;-78
2022/01/21 07:17:22;;;;;;;0.50;0.50;;;-0.40;99.90;-1.70;99826;;;;582672;244;24073;-78
2022/01/21 07:19:49;;;;;;;0.20;0.20;;;-0.40;99.90;-1.60;99829;;;;585415;243;24045;-79
2022/01/21 07:22:17;;;;;;;0.30;0.30;;;-0.40;99.90;-1.60;99833;;;;589485;243;24052;-79
2022/01/21 07:24:46;;;;;;;0.20;0.20;;;-0.40;99.90;-1.60;99825;;;;588312;242;24096;-78
2022/01/21 07:27:14;;;;;;;0.20;0.20;;;-0.40;99.90;-1.60;99825;;;;588027;242;24058;-78
2022/01/21 07:29:42;;;;;;;0.60;0.60;;;-0.40;99.90;-1.50;99833;;;;587654;242;24078;-77
2022/01/21 07:32:13;;;;;;;0.97;0.70;;;-0.30;99.90;-1.50;99838;;;;582279;242;24082;-78
2022/01/21 07:34:38;;;;;;;0.20;0.20;;;-0.20;99.90;-1.50;99836;;;;556080;254;24119;-78
2022/01/21 07:37:06;;;;;;;0.20;0.20;;;-0.30;99.90;-1.50;99834;;;;587884;244;25096;-78
2022/01/21 07:39:34;;;;;;;0.20;0.20;;;-0.20;99.90;-1.40;99832;;;;577587;244;24072;-79
2022/01/21 07:42:02;;;;;;;0.10;0.10;;;-0.20;99.90;-1.40;99825;;;;585972;243;24043;-79
2022/01/21 07:44:30;;;;;;;0.10;0.10;;;-0.20;99.90;-1.40;99844;;;;586226;245;25149;-80
2022/01/21 07:47:02;;;;;;;0.10;0.10;;;-0.20;99.90;-1.40;99836;;;;585701;243;24074;-80
2022/01/21 07:49:27;;;;;;;2.00;1.10;;;-0.20;99.90;-1.40;99837;;;;573610;244;35034;-79
2022/01/21 07:51:55;;;;;;;0.10;0.10;;;-0.20;99.90;-1.30;99845;;;;586860;243;24056;-80
2022/01/21 07:54:22;;;;;;;0.20;0.20;;;-0.10;99.90;-1.30;99845;;;;586846;244;24055;-78
2022/01/21 07:56:50;;;;;;;0.30;0.30;;;-0.10;99.90;-1.20;99848;;;;577308;245;24076;-79
2022/01/21 07:59:18;;;;;;;0.10;0.10;;;0.00;99.90;-1.20;99848;;;;579145;242;24122;-79
2022/01/21 08:01:46;;;;;;;0.10;0.10;;;0.00;99.90;-1.10;99850;;;;582074;240;24109;-79
2022/01/21 08:04:14;;;;;;;0.67;0.67;;;0.10;99.90;-1.10;99855;;;;586733;243;24052;-80
2022/01/21 08:06:42;;;;;;;0.30;0.30;;;0.10;99.90;-1.10;99856;;;;581463;245;24058;-79
2022/01/21 08:09:10;;;;;;;0.30;0.30;;;0.10;99.90;-1.10;99863;;;;576690;245;24101;-80
2022/01/21 08:11:38;;;;;;;0.40;0.40;;;0.10;99.90;-1.10;99864;;;;591329;242;25091;-80
2022/01/21 08:14:06;;;;;;;0.23;0.23;;;0.10;99.90;-1.10;99869;;;;583435;243;24150;-79
2022/01/21 08:16:35;;;;;;;0.47;0.47;;;0.20;99.90;-1.00;99861;;;;579278;247;24099;-80
2022/01/21 08:19:03;;;;;;;0.93;0.93;;;0.20;99.90;-1.00;99869;;;;580199;244;24051;-78
2022/01/21 08:21:29;;;;;;;0.10;0.10;;;0.20;99.90;-0.90;99862;;;;584380;244;24100;-79
2022/01/21 08:23:58;;;;;;;0.30;0.30;;;0.30;99.90;-0.90;99864;;;;582783;246;24082;-76
2022/01/21 08:26:27;;;;;;;0.90;0.53;;;0.30;99.90;-0.90;99878;;;;581454;247;25197;-79
2022/01/21 08:28:54;;;;;;;0.30;0.30;;;0.30;99.90;-0.90;99881;;;;572734;246;24083;-79
2022/01/21 08:31:26;;;;;;;1.03;1.03;;;0.30;99.90;-0.80;99877;;;;571908;246;27287;-78
2022/01/21 08:33:50;;;;;;;0.10;0.10;;;0.40;99.90;-0.70;99890;;;;577473;244;25147;-77
2022/01/21 08:36:24;;;;;;;0.20;0.20;;;0.50;99.90;-0.70;99881;;;;577175;244;24169;-78
2022/01/21 08:38:52;;;;;;;1.20;1.20;;;0.50;99.90;-0.60;99889;;;;578833;243;24050;-79
2022/01/21 08:41:20;;;;;;;4.18;1.62;;;0.60;99.90;-0.50;99871;;;;575817;243;35043;-78
2022/01/21 08:43:48;;;;;;;0.60;0.60;;;0.70;99.90;-0.50;99889;;;;578758;244;24125;-79
2022/01/21 08:46:16;;;;;;;1.60;0.67;;;0.70;99.90;-0.40;99879;;;;573613;247;24081;-80
2022/01/21 08:48:45;;;;;;;1.47;0.47;;;0.90;99.90;-0.30;99879;;;;567134;250;24177;-78
2022/01/21 08:51:14;;;;;;;0.30;0.30;;;0.90;99.90;-0.30;99876;;;;560596;252;24131;-77
2022/01/21 08:53:41;;;;;;;0.33;0.33;;;0.90;99.90;-0.30;99878;;;;571272;249;24105;-78
2022/01/21 08:56:07;;;;;;;0.20;0.20;;;1.00;99.90;-0.20;99878;;;;555925;252;24155;-79
2022/01/21 08:58:35;;;;;;;0.10;0.10;;;1.00;99.90;-0.10;99872;;;;558065;252;24215;-79
2022/01/21 09:01:03;;;;;;;0.37;0.37;;;1.10;99.90;-0.10;99877;;;;557784;255;24167;-79
2022/01/21 09:03:34;;;;;;;1.87;1.70;;;1.20;99.90;0.10;99878;;;;556569;252;24160;-78
2022/01/21 09:05:59;;;;;;;0.27;0.20;;;1.40;99.90;0.20;99884;;;;553649;253;24199;-81
2022/01/21 09:08:30;;;;;;;0.40;0.33;;;1.50;99.90;0.30;99896;;;;585577;244;24176;-79
2022/01/21 09:10:55;;;;;;;0.30;0.30;;;1.60;99.90;0.30;99894;;;;575978;246;24061;-79
2022/01/21 09:13:25;;;;;;;0.40;0.40;;;1.60;99.90;0.30;99885;;;;572559;249;24103;-78
2022/01/21 09:15:51;;;;;;;0.30;0.20;;;1.60;99.90;0.30;99890;;;;563679;251;24154;-79
2022/01/21 09:18:20;;;;;;;0.10;0.10;;;1.60;99.90;0.30;99888;;;;564867;251;24213;-79
2022/01/21 09:20:47;;;;;;;0.10;0.10;;;1.60;99.90;0.20;99900;;;;567401;251;24088;-79
2022/01/21 09:23:15;;;;;;;0.20;0.20;;;1.50;99.90;0.20;99887;;;;570444;244;24052;-80
2022/01/21 09:25:43;;;;;;;0.43;0.43;;;1.50;99.90;0.20;99895;;;;586717;244;24071;-79
2022/01/21 09:28:11;;;;;;;0.43;0.40;;;1.50;99.90;0.20;99904;;;;578268;245;24088;-79
2022/01/21 09:30:39;;;;;;;0.53;0.53;;;1.50;99.90;0.20;99901;;;;585227;245;24072;-77
2022/01/21 09:33:10;;;;;;;0.97;0.90;;;1.40;99.90;0.10;99898;;;;562909;248;24068;-77
2022/01/21 09:35:35;;;;;;;0.30;0.30;;;1.40;99.90;0.00;99896;;;;562153;251;24176;-78
2022/01/21 09:38:03;;;;;;;0.30;0.30;;;1.40;99.90;0.00;99904;;;;570171;248;24115;-79
2022/01/21 09:40:31;;;;;;;0.60;0.60;;;1.30;99.90;0.00;99912;;;;589109;242;24096;-79
2022/01/21 09:42:59;;;;;;;0.30;0.30;;;1.30;99.90;0.00;99903;;;;577820;245;24089;-79
2022/01/21 09:45:29;;;;;;;0.40;0.40;;;1.30;99.90;0.00;99899;;;;573904;242;24127;-77
2022/01/21 09:47:58;;;;;;;0.30;0.20;;;1.30;99.90;0.00;99902;;;;591324;241;24057;-77
2022/01/21 09:50:23;;;;;;;0.53;0.53;;;1.30;99.90;0.00;99915;;;;573608;247;24100;-79
2022/01/21 09:52:53;;;;;;;0.93;0.70;;;1.30;99.90;0.10;99905;;;;567521;244;35261;-79
2022/01/21 09:55:20;;;;;;;1.17;0.80;;;1.40;99.90;0.20;99896;;;;569554;250;24094;-79
2022/01/21 09:57:46;;;;;;;0.40;0.40;;;1.40;99.90;0.20;99914;;;;576837;244;24067;-78
2022/01/21 10:00:14;;;;;;;0.57;0.30;;;1.50;99.90;0.20;99899;;;;588769;244;24068;-80
2022/01/21 10:02:43;;;;;;;0.83;0.83;;;1.50;99.90;0.20;99899;;;;580402;244;24081;-79
2022/01/21 10:05:10;;;;;;;0.50;0.50;;;1.50;99.90;0.20;99907;;;;586779;244;24092;-81
2022/01/21 10:07:41;;;;;;;0.23;0.23;;;1.50;99.90;0.20;99907;;;;577778;245;24042;-80
2022/01/21 10:10:09;;;;;;;2.93;0.70;;;1.50;99.90;0.20;99899;;;;585176;245;24075;-80
2022/01/21 10:12:38;;;;;;;0.47;0.47;;;1.50;99.90;0.20;99910;;;;578216;245;24050;-78
2022/01/21 10:15:05;;;;;;;0.40;0.40;;;1.50;99.90;0.10;99912;;;;572472;244;24070;-79
2022/01/21 10:17:36;;;;;;;1.07;0.40;;;1.40;99.90;0.20;99904;;;;576348;245;24093;-80
2022/01/21 10:20:16;;;;;;;1.70;1.10;;;1.50;99.90;0.20;99922;;;;571471;245;35032;-80
2022/01/21 10:23:03;;;;;;;0.50;0.50;;;1.40;99.90;0.20;99929;;;;584663;244;24064;-80
2022/01/21 10:25:34;;;;;;;0.20;0.20;;;1.50;99.90;0.10;99917;;;;573560;246;24063;-80
2022/01/21 10:28:19;;;;;;;0.80;0.80;;;1.40;99.90;0.10;99915;;;;558620;252;24158;-80
2022/01/21 10:30:42;;;;;;;0.50;0.50;;;1.40;99.90;0.10;99926;;;;555418;254;24126;-80
2022/01/21 10:33:22;;;;;;;0.10;0.10;;;1.40;99.90;0.10;99916;;;;563479;249;24107;-80
2022/01/21 10:35:51;;;;;;;0.50;0.50;;;1.40;99.90;0.10;99929;;;;571045;248;25139;-80
2022/01/21 10:38:28;;;;;;;1.50;0.60;;;1.40;99.90;0.10;99928;;;;559851;253;24127;-79
2022/01/21 10:40:52;;;;;;;0.80;0.80;;;1.40;99.90;0.00;99938;;;;565679;253;24146;-80
2022/01/21 10:43:20;;;;;;;0.30;0.30;;;1.30;99.90;0.00;99937;;;;563947;254;24116;-80
2022/01/21 10:45:54;;;;;;;2.53;0.63;;;1.30;99.90;0.00;99938;;;;576789;246;24066;-80
2022/01/21 10:48:23;;;;;;;0.20;0.20;;;1.30;99.90;0.00;99957;;;;584568;244;24052;-79
2022/01/21 10:51:15;;;;;;;3.50;0.40;;;1.30;99.90;-0.10;99953;;;;586531;243;24050;-80
2022/01/21 10:53:46;;;;;;;0.63;0.43;;;1.30;99.90;-0.10;99970;;;;575142;247;24075;-81
2022/01/21 10:56:16;;;;;;;0.20;0.20;;;1.10;99.90;-0.10;99965;;;;566125;250;24197;-82
2022/01/21 10:58:44;;;;;;;0.50;0.33;;;1.10;99.90;-0.10;99963;;;;576686;244;24094;-81
2022/01/21 11:01:17;;;;;;;0.13;0.13;;;1.10;99.90;-0.10;99955;;;;570234;247;24110;-82
2022/01/21 11:04:05;;;;;;;0.40;0.40;;;1.10;99.90;-0.10;99963;;;;578529;245;24169;-81
2022/01/21 11:06:43;;;;;;;0.53;0.53;;;1.20;99.90;-0.10;99971;;;;585174;242;24089;-81
2022/01/21 11:09:21;;;;;;;0.60;0.60;;;1.20;99.90;-0.10;99977;;;;579027;247;24065;-81
2022/01/21 11:12:07;;;;;;;0.83;0.83;;;1.20;99.90;-0.10;99965;;;;582304;246;24168;-80
2022/01/21 11:14:34;;;;;;;2.23;0.87;;;1.10;99.90;-0.20;99963;;;;575810;244;24059;-81
2022/01/21 11:17:05;;;;;;;0.23;0.23;;;1.00;99.90;-0.30;99978;;;;577696;244;24069;-81
2022/01/21 11:19:35;;;;;;;0.47;0.47;;;1.00;99.90;-0.20;99982;;;;573110;246;24087;-81
2022/01/21 11:22:04;;;;;;;1.83;0.97;;;1.00;99.90;-0.30;99981;;;;573794;245;24081;-81
2022/01/21 11:24:30;;;;;;;1.73;1.63;;;1.00;99.90;-0.30;99972;;;;573756;246;24052;-80
2022/01/21 11:27:16;;;;;;;5.40;1.50;;;0.90;99.90;-0.20;99968;;;;578759;244;24076;-80
2022/01/21 11:29:45;;;;;;;1.13;1.13;;;1.00;99.90;-0.20;99968;;;;568944;246;24126;-80
2022/01/21 11:32:12;;;;;;;3.90;1.40;;;1.00;99.90;-0.10;99968;;;;565169;250;24189;-80
2022/01/21 11:34:42;;;;;;;1.70;0.73;;;1.10;99.90;-0.10;99977;;;;577543;243;24083;-80
2022/01/21 11:37:08;;;;;;;0.77;0.73;;;1.20;99.90;-0.10;99970;;;;583163;244;24087;-80
2022/01/21 11:39:37;;;;;;;1.30;0.73;;;1.20;99.90;0.00;99976;;;;568302;248;24099;-81
2022/01/21 11:42:05;;;;;;;1.53;0.80;;;1.20;99.90;0.00;99968;;;;591008;243;24208;-81
2022/01/21 11:44:37;;;;;;;0.73;0.73;;;1.30;99.90;0.10;99968;;;;582737;243;24100;-78
2022/01/21 11:49:29;;;;;;;2.53;1.13;;;1.30;99.90;0.00;99968;;;;579567;242;24058;-80
2022/01/21 11:52:15;;;;;;;0.53;0.53;;;1.20;99.90;0.00;99963;;;;586462;245;24075;-81
2022/01/21 11:54:44;;;;;;;0.30;0.20;;;1.40;99.90;0.10;99964;;;;581616;243;24084;-80
2022/01/21 11:57:12;;;;;;;1.40;0.30;;;1.40;99.90;0.10;99980;;;;573433;245;24089;-81
2022/01/21 11:59:50;;;;;;;0.50;0.50;;;1.30;99.90;0.00;99955;;;;574024;242;24074;-80
2022/01/21 12:02:16;;;;;;;0.20;0.20;;;1.30;99.90;0.10;99972;;;;565473;249;24091;-80
2022/01/21 12:05:06;;;;;;;0.60;0.60;;;1.40;99.90;0.10;99971;;;;573921;246;24069;-82
2022/01/21 12:07:44;;;;;;;0.30;0.30;;;1.40;99.90;0.10;99965;;;;581765;245;24127;-80
2022/01/21 12:10:10;;;;;;;4.13;0.83;;;1.50;99.90;0.00;99966;;;;561916;252;24153;-82
2022/01/21 12:12:56;;;;;;;0.87;0.40;;;1.20;99.90;-0.10;99983;;;;570089;251;24168;-82
2022/01/21 12:21:04;;;;;;;4.93;1.30;;;1.30;99.90;0.00;99982;;;;572910;247;24099;-81
2022/01/21 12:23:25;;;;;;;0.50;0.50;;;1.30;99.90;0.00;99968;;;;572547;246;24118;-81
2022/01/21 12:26:23;;;;;;;1.80;1.07;;;1.40;99.90;0.10;99966;;;;573187;242;24072;-81
2022/01/21 12:28:59;;;;;;;0.10;0.10;;;1.40;99.90;0.10;99968;;;;573736;248;24095;-82